Flight Track Log - Related Links

Times and Time Zones

All times are in EDT time to prevent confusion due to time zone crossing. See the N6858W flight status page for this flight to view local times or setup timezone preferences in your user account.

Time Position Orientation Groundspeed Altitude Reporting Facility
EDT Latitude Longitude Course Direction KTS MPH feet Rate Location/Type
Thu 10:44:00 AM 34.3408 -78.3339 29° Northeast  Level FlightAware Approximate
Thu 10:45:00 AM 34.3877 -78.3018 30° Northeast  Level FlightAware Approximate
Thu 10:46:00 AM 34.4342 -78.2688 30° Northeast  Level FlightAware Approximate
Thu 10:47:00 AM 34.4807 -78.2357 30° Northeast  Level FlightAware Approximate
Thu 10:48:00 AM 34.5272 -78.2027 30° Northeast  Level FlightAware Approximate
Thu 10:49:00 AM 34.5737 -78.1696 30° Northeast  Level FlightAware Approximate
Thu 10:50:00 AM 34.6202 -78.1364 30° Northeast  Level FlightAware Approximate
Thu 10:51:00 AM 34.6667 -78.1032 30° Northeast  Level FlightAware Approximate
Thu 10:51:22 AM 34.7331 -78.0458 31° Northeast 205 236 8,900  Level Washington Center
Thu 10:52:00 AM 34.7132 -78.0700 30° Northeast  Level FlightAware Approximate
Thu 10:52:23 AM 34.7797 -78.0094 33° Northeast 206 237 8,900  Level Washington Center
Thu 10:53:00 AM 34.7596 -78.0367 30° Northeast  Level FlightAware Approximate
Thu 10:53:21 AM 34.8325 -77.9706 31° Northeast 206 237 8,900  Level Washington Center
Thu 10:54:00 AM 34.8061 -78.0034 30° Northeast  Level FlightAware Approximate
Thu 10:54:21 AM 34.8792 -77.9364 31° Northeast 206 237 8,900  Level Washington Center
Thu 10:55:00 AM 34.8525 -77.9701 30° Northeast  Level FlightAware Approximate
Thu 10:55:22 AM 34.9300 -77.8975 32° Northeast 205 236 8,900  Level Washington Center
Thu 10:56:00 AM 34.8990 -77.9367 31° Northeast  Level FlightAware Approximate
Thu 10:56:23 AM 34.9808 -77.8608 31° Northeast 206 237 8,900  Level Washington Center
Thu 10:57:17 AM 35.0231 -77.8239 36° Northeast 205 236 8,900  Level Washington Center
Thu 10:58:18 AM 35.0697 -77.7922 29° Northeast 203 234 8,900 46 Level Washington Center
Thu 10:59:27 AM 35.1225 -77.7506 33° Northeast 205 236 9,000  Climbing Washington Center
Thu 11:00:21 AM 35.1692 -77.7161 31° Northeast 204 235 8,900 -53 Descending Washington Center
Thu 11:01:21 AM 35.2156 -77.6792 33° Northeast 205 236 8,900  Level Washington Center
Thu 11:02:20 AM 35.2664 -77.6400 32° Northeast 206 237 8,900 50 Level Washington Center
Thu 11:03:20 AM 35.3128 -77.6056 31° Northeast 205 236 9,000 45 Climbing Washington Center
Thu 11:04:33 AM 35.3742 -77.5611 31° Northeast 207 238 9,000 -61 Level Washington Center
Thu 11:04:58 AM 35.3889 -77.5514 28° Northeast 224 258 8,900 -71 Descending Washington Center
Thu 11:05:58 AM 35.4394 -77.5142 31° Northeast 231 266 8,900  Level Washington Center
Thu 11:06:58 AM 35.4922 -77.4772 30° Northeast 219 252 8,900  Level Washington Center
Thu 11:07:56 AM 35.5408 -77.4453 28° Northeast 208 239 8,900  Level Washington Center
Thu 11:08:57 AM 35.5914 -77.4133 27° Northeast 203 234 8,900 50 Level Washington Center
Thu 11:09:57 AM 35.6483 -77.3761 28° Northeast 203 234 9,000 50 Climbing Washington Center
Thu 11:10:56 AM 35.6989 -77.3389 31° Northeast 203 234 9,000  Level Washington Center
Thu 11:11:56 AM 35.7494 -77.3042 29° Northeast 203 234 9,000  Level Washington Center
Thu 11:12:57 AM 35.7981 -77.2719 28° Northeast 203 234 9,000  Level Washington Center
Thu 11:13:58 AM 35.8506 -77.2372 28° Northeast 203 234 9,000  Level Washington Center
Thu 11:14:56 AM 35.8992 -77.2022 30° Northeast 208 239 9,000 -50 Level Washington Center
Thu 11:15:57 AM 35.9497 -77.1622 33° Northeast 208 239 8,900 -50 Descending Washington Center
Thu 11:16:57 AM 36.0000 -77.1325 26° Northeast 203 234 8,900  Level Washington Center
Thu 11:17:56 AM 36.0506 -77.0950 31° Northeast 203 234 8,900  Level Washington Center
Thu 11:18:57 AM 36.1011 -77.0600 29° Northeast 203 234 8,900  Level Washington Center
Thu 11:19:57 AM 36.1517 -77.0247 29° Northeast 203 234 8,900  Level Washington Center
Thu 11:20:58 AM 36.2042 -76.9872 30° Northeast 203 234 8,900  Level Washington Center
Thu 11:21:59 AM 36.2547 -76.9519 29° Northeast 203 234 8,900  Level Washington Center
Thu 11:22:57 AM 36.3072 -76.9167 28° Northeast 203 234 8,900 50 Level Washington Center
Thu 11:23:58 AM 36.3597 -76.8867 25° Northeast 217 250 9,000 50 Climbing Washington Center
Thu 11:24:58 AM 36.4083 -76.8436 35° Northeast 216 249 9,000 -51 Level Washington Center
Thu 11:25:56 AM 36.4567 -76.7981 37° Northeast 214 246 8,900 -50 Descending Washington Center
Thu 11:26:57 AM 36.5050 -76.7547 36° Northeast 214 246 8,900 48 Level Washington Center
Thu 11:28:01 AM 36.5578 -76.7142 32° Northeast 216 249 9,000  Climbing Washington Center
Thu 11:28:56 AM 36.6039 -76.6683 39° Northeast 214 246 8,900 -52 Descending Washington Center
Thu 11:29:57 AM 36.6522 -76.6250 36° Northeast 214 246 8,900  Level Washington Center
Thu 11:30:57 AM 36.7006 -76.5842 34° Northeast 214 246 8,900 99 Level Washington Center
Thu 11:31:58 AM 36.7489 -76.5406 36° Northeast 214 246 9,100 99 Climbing Washington Center
Thu 11:32:58 AM 36.7972 -76.4997 34° Northeast 211 243 9,100  Level Washington Center
Thu 11:33:59 AM 36.8456 -76.4561 36° Northeast 211 243 9,100  Level Washington Center
Thu 11:35:00 AM 36.8917 -76.4150 35° Northeast 211 243 9,100  Level Washington Center
Thu 11:36:01 AM 36.9422 -76.3664 38° Northeast 213 245 9,100  Level Washington Center
Thu 11:37:08 AM 36.9967 -76.3200 34° Northeast 212 244 9,100  Level Washington Center
Thu 11:38:08 AM 37.0450 -76.2736 37° Northeast 212 244 9,100  Level Washington Center
Thu 11:39:08 AM 37.0953 -76.2325 33° Northeast 214 246 9,100  Level Washington Center
Thu 11:40:09 AM 37.1392 -76.1911 37° Northeast 214 246 9,100  Level Washington Center
Thu 11:41:09 AM 37.1875 -76.1472 36° Northeast 212 244 9,100  Level Washington Center
Thu 11:42:13 AM 37.2356 -76.1031 36° Northeast 212 244 9,100  Level Washington Center
Thu 11:43:13 AM 37.2881 -76.0564 35° Northeast 211 243 9,100  Level Washington Center
Thu 11:44:14 AM 37.3339 -76.0122 37° Northeast 212 244 9,100 -47 Level Washington Center
Thu 11:45:20 AM 37.3864 -75.9733 30° Northeast 230 265 9,000 -47 Descending Washington Center
Thu 11:46:21 AM 37.4364 -75.9369 30° Northeast 224 258 9,000  Level Washington Center
Thu 11:47:21 AM 37.4886 -75.9006 29° Northeast 213 245 9,000 -50 Level Washington Center
Thu 11:48:22 AM 37.5389 -75.8617 32° Northeast 208 239 8,900 -50 Descending Washington Center
Thu 11:49:20 AM 37.5869 -75.8225 33° Northeast 208 239 8,900  Level Washington Center
Thu 11:50:20 AM 37.6392 -75.7858 29° Northeast 208 239 8,900  Level Washington Center
Thu 11:51:22 AM 37.6872 -75.7467 33° Northeast 208 239 8,900  Level Washington Center
Thu 11:52:20 AM 37.7372 -75.7125 28° Northeast 208 239 8,900  Level Washington Center
Thu 11:53:21 AM 37.7894 -75.6758 29° Northeast 203 234 8,900  Level Washington Center
Thu 11:54:22 AM 37.8394 -75.6364 32° Northeast 203 234 8,900  Level Washington Center
Thu 11:55:20 AM 37.8894 -75.5969 32° Northeast 203 234 8,900  Level Washington Center
Thu 11:56:21 AM 37.9394 -75.5575 32° Northeast 203 234 8,900  Level Washington Center
Thu 11:57:22 AM 37.9897 -75.5206 30° Northeast 203 234 8,900  Level Washington Center
Thu 11:58:22 AM 38.0397 -75.4836 30° Northeast 203 234 8,900  Level Washington Center
Thu 11:59:20 AM 38.0917 -75.4467 29° Northeast 203 234 8,900  Level Washington Center
Thu 12:00:21 PM 38.1439 -75.4147 26° Northeast 203 234 8,900  Level Washington Center
Thu 12:01:21 PM 38.1958 -75.3803 28° Northeast 203 234 8,900  Level Washington Center
Thu 12:03:00 PM 38.2764 -75.3189 31° Northeast  Level FlightAware Approximate
Thu 12:03:22 PM 38.2978 -75.3167 31° Northeast 198 228 8,900  Level Washington Center
Thu 12:04:19 PM 38.3561 -75.2767 28° Northeast 203 234 8,900  Level Washington Center
Thu 12:05:21 PM 38.4083 -75.2447 26° Northeast 203 234 8,900  Level Washington Center
Thu 12:06:22 PM 38.4581 -75.2125 27° Northeast 198 228 8,900  Level Washington Center
Thu 12:07:20 PM 38.5103 -75.1753 29° Northeast 198 228 8,900 50 Level Washington Center
Thu 12:08:22 PM 38.5600 -75.1403 29° Northeast 198 228 9,000  Climbing Washington Center
Thu 12:09:20 PM 38.6100 -75.1133 23° Northeast 198 228 8,900 -51 Descending Washington Center
Thu 12:10:20 PM 38.6600 -75.0811 27° Northeast 198 228 8,900  Level Washington Center
Thu 12:11:20 PM 38.7119 -75.0489 26° Northeast 198 228 8,900  Level Washington Center
Thu 12:12:21 PM 38.7617 -75.0167 27° Northeast 198 228 8,900  Level Washington Center
Thu 12:13:21 PM 38.8136 -74.9842 26° Northeast 198 228 8,900  Level Washington Center
Thu 12:14:22 PM 38.8656 -74.9517 26° Northeast 198 228 8,900  Level Washington Center
Thu 12:15:20 PM 38.9156 -74.9194 27° Northeast 198 228 8,900  Level Washington Center
Thu 12:16:22 PM 38.9653 -74.8867 27° Northeast 198 228 8,900 50 Level Washington Center
Thu 12:17:19 PM 39.0172 -74.8542 26° Northeast 198 228 9,000  Climbing Washington Center
Thu 12:18:20 PM 39.0692 -74.8189 28° Northeast 198 228 8,900  Descending Washington Center
Thu 12:19:20 PM 39.1169 -74.7783 33° Northeast 198 228 9,000 50 Climbing Washington Center
Thu 12:20:21 PM 39.1539 -74.7111 55° Northeast 204 235 9,000  Level Washington Center
Thu 12:21:21 PM 39.1931 -74.6542 48° Northeast 204 235 9,000  Level Washington Center
Thu 12:22:21 PM 39.2322 -74.5947 50° Northeast 210 242 9,000 -50 Level Washington Center
Thu 12:23:22 PM 39.2711 -74.5353 50° Northeast 215 247 8,900 -57 Descending Washington Center
Thu 12:24:07 PM 39.3003 -74.4892 51° Northeast 212 244 8,900  Level New York Center
Thu 12:25:07 PM 39.3397 -74.4269 51° Northeast 212 244 8,900 51 Level New York Center
Thu 12:26:05 PM 39.3772 -74.3669 51° Northeast 212 244 9,000 51 Climbing New York Center
Thu 12:27:05 PM 39.4186 -74.3047 49° Northeast 217 250 9,000  Level New York Center
Thu 12:28:06 PM 39.4622 -74.2397 49° Northeast 227 261 9,000  Level New York Center
Thu 12:29:06 PM 39.5017 -74.1769 51° Northeast 227 261 9,000  Level New York Center
Thu 12:30:04 PM 39.5408 -74.1169 50° Northeast 227 261 9,000  Level New York Center
Thu 12:31:05 PM 39.5758 -74.0594 52° Northeast 227 261 9,000  Level New York Center
Thu 12:32:05 PM 39.6172 -73.9994 48° Northeast 227 261 9,000  Level New York Center
Thu 12:33:05 PM 39.6608 -73.9286 51° Northeast 227 261 9,000  Level New York Center
Thu 12:34:06 PM 39.7022 -73.8631 51° Northeast 227 261 9,000  Level New York Center
Thu 12:35:07 PM 39.7433 -73.8028 48° Northeast 227 261 9,000 -50 Level New York Center
Thu 12:36:07 PM 39.7806 -73.7367 54° Northeast 222 255 8,900  Descending New York Center
Thu 12:37:07 PM 39.8217 -73.6736 50° Northeast 222 255 9,000  Climbing New York Center
Thu 12:38:05 PM 39.8608 -73.6078 52° Northeast 222 255 8,900  Descending New York Center
Thu 12:39:05 PM 39.9019 -73.5444 50° Northeast 228 262 9,000 29 Climbing New York Center
Thu 12:41:32 PM 40.0122 -73.4181 41° Northeast 228 262 9,000  Level Boston Center
Thu 12:42:32 PM 40.0564 -73.3644 43° Northeast 218 251 9,000  Level Boston Center
Thu 12:43:32 PM 40.1028 -73.3108 41° Northeast 218 251 9,000  Level Boston Center
Thu 12:44:32 PM 40.1469 -73.2544 44° Northeast 218 251 9,000  Level Boston Center
Thu 12:45:32 PM 40.1911 -73.2006 43° Northeast 218 251 9,000  Level Boston Center
Thu 12:46:32 PM 40.2372 -73.1442 43° Northeast 218 251 9,000 -50 Level Boston Center
Thu 12:47:32 PM 40.2814 -73.0928 42° Northeast 213 245 8,900  Descending Boston Center
Thu 12:48:32 PM 40.3253 -73.0417 42° Northeast 213 245 9,000 50 Climbing Boston Center
Thu 12:49:32 PM 40.3694 -72.9875 43° Northeast 213 245 9,000  Level Boston Center
Thu 12:50:32 PM 40.4050 -72.9442 43° Northeast 213 245 9,000  Level Boston Center
Thu 12:51:32 PM 40.4572 -72.8792 43° Northeast 213 245 9,000  Level Boston Center
Thu 12:53:30 PM 40.5500 -72.7667 43° Northeast 214 246 9,000  Level New York TRACON
Thu 12:54:30 PM 40.6000 -72.7167 37° Northeast 216 249 9,000  Level New York TRACON
Thu 12:55:30 PM 40.6333 -72.6500 57° Northeast 218 251 9,000  Level New York TRACON
Thu 12:56:30 PM 40.6833 -72.6000 37° Northeast 215 247 9,000  Level New York TRACON
Thu 12:57:30 PM 40.7333 -72.5500 37° Northeast 216 249 9,000  Level New York TRACON
Thu 12:58:30 PM 40.7667 -72.5000 49° Northeast 218 251 9,000  Level New York TRACON
Thu 12:59:30 PM 40.8167 -72.4500 37° Northeast 218 251 9,000  Level New York TRACON
Thu 01:00:30 PM 40.8667 -72.3833 45° Northeast 216 249 9,000 -50 Level New York TRACON
Thu 01:01:30 PM 40.9042 -72.3386 42° Northeast 216 249 8,900 -71 Descending Boston Center
Thu 01:01:54 PM 40.9206 -72.3164 46° Northeast 217 250 8,900  Level Boston Center
Thu 01:02:49 PM 40.9686 -72.2972 17° North 218 251 8,900  Level Boston Center
Thu 01:03:50 PM 41.0186 -72.2722 21° North 200 230 8,900 50 Level Boston Center
Thu 01:04:50 PM 41.0706 -72.2475 20° North 197 227 9,000 52 Climbing Boston Center
Thu 01:05:45 PM 41.1144 -72.2225 23° Northeast 191 220 9,000  Level Boston Center
Thu 01:06:46 PM 41.1642 -72.1975 21° North 194 223 9,000  Level Boston Center
Thu 01:07:46 PM 41.2183 -72.1725 19° North 194 223 9,000  Level Boston Center
Thu 01:08:53 PM 41.2747 -72.1419 22° Northeast 196 226 9,000  Level Boston Center
Thu 01:10:00 PM 41.3308 -72.1194 17° North 194 223 9,000  Level Boston Center
Thu 01:10:54 PM 41.3767 -72.0942 22° Northeast 192 221 9,000  Level Boston Center
Thu 01:12:01 PM 41.4347 -72.0636 22° Northeast 198 228 9,000  Level Boston Center
Thu 01:12:55 PM 41.4806 -72.0356 25° Northeast 194 223 9,000  Level Boston Center
Thu 01:13:56 PM 41.5283 -72.0186 15° North 190 219 9,000  Level Boston Center
Thu 01:14:57 PM 41.5806 -72.0017 14° North 181 208 9,000  Level Boston Center
Thu 01:15:57 PM 41.6283 -72.0069 355° North 171 197 9,000  Level Boston Center
Thu 01:16:44 PM 41.6639 -72.0094 357° North 169 194 9,000  Level Boston Center
Thu 01:17:45 PM 41.7119 -72.0119 358° North 170 196 9,000  Level Boston Center
Thu 01:18:46 PM 41.7578 -72.0142 358° North 169 194 9,000  Level Boston Center
Thu 01:19:46 PM 41.8056 -72.0194 355° North 168 193 9,000  Level Boston Center
Thu 01:20:47 PM 41.8556 -72.0219 358° North 178 205 9,000  Level Boston Center
Thu 01:21:48 PM 41.9078 -72.0244 358° North 180 207 9,000  Level Boston Center
Thu 01:22:49 PM 41.9578 -72.0103 12° North 186 214 9,000  Level Boston Center
Thu 01:24:00 PM 42.0243 -72.0133 358° North  Level FlightAware Approximate
Thu 01:24:50 PM 42.0619 -71.9900 358° North 180 207 9,000  Level Boston Center
Thu 01:25:51 PM 42.1139 -71.9811 North 182 209 9,000  Level Boston Center
Thu 01:26:51 PM 42.1639 -71.9694 10° North 186 214 9,000  Level Boston Center
Thu 01:27:52 PM 42.2119 -71.9608 North 178 205 9,000  Level Boston Center
Thu 01:28:59 PM 42.2681 -71.9519 North 179 206 9,000  Level Boston Center
Thu 01:30:08 PM 42.3200 -71.9375 12° North 198 228 9,000  Level Boston Center
Thu 01:31:08 PM 42.3764 -71.9258 North 198 228 9,000  Level Boston Center
Thu 01:32:08 PM 42.4283 -71.9169 North 192 221 9,000  Level Boston Center
Thu 01:33:08 PM 42.4783 -71.9081 North 186 214 9,000  Level Boston Center
Thu 01:34:08 PM 42.5283 -71.8992 North 179 206 9,000  Level Boston Center
Thu 01:35:08 PM 42.5783 -71.8847 12° North 179 206 9,000 -50 Level Boston Center
Thu 01:36:08 PM 42.6283 -71.8758 North 179 206 8,900 -250 Descending Boston Center
Thu 01:37:08 PM 42.6783 -71.8669 North 179 206 8,500 -600 Descending Boston Center
Thu 01:38:08 PM 42.7303 -71.8550 10° North 184 212 7,700 -750 Descending Boston Center
Thu 01:39:08 PM 42.7781 -71.8319 20° North 179 206 7,000 -300 Descending Boston Center
Thu 01:40:08 PM 42.8281 -71.8058 21° North 184 212 7,100 50 Climbing Boston Center
Thu 01:41:08 PM 42.8778 -71.7828 19° North 189 217 7,100  Level Boston Center
Thu 01:42:08 PM 42.9278 -71.7539 23° Northeast 189 217 7,100  Level Boston Center
Thu 01:43:08 PM 42.9756 -71.7306 20° North 189 217 7,100 -250 Level Boston Center
Thu 01:44:08 PM 43.0192 -71.7103 19° North 189 217 6,600 -650 Descending Boston Center
Thu 01:45:08 PM 43.0669 -71.6842 22° Northeast 179 206 5,800 -800 Descending Boston Center
Thu 01:46:08 PM 43.1083 -71.6608 22° Northeast 179 206 5,000 -350 Descending Boston Center
Thu 01:47:08 PM 43.1561 -71.6375 20° North 167 192 5,100 47 Climbing Boston Center
Thu 01:48:15 PM 43.2000 -71.6167 19° North 174 200 5,100 47 Level KA90
Thu 01:49:15 PM 43.2500 -71.5833 26° Northeast 180 207 5,200  Climbing KA90
Thu 01:50:22 PM 43.3000 -71.5500 26° Northeast 172 198 5,100 -238 Descending KA90
Thu 01:51:21 PM 43.3500 -71.5333 14° North 174 200 4,700 -500 Descending KA90
Thu 01:52:22 PM 43.4000 -71.5167 14° North 174 200 4,100 -590 Descending KA90
Thu 01:54:00 PM 43.4819 -71.4582 27° Northeast  Level FlightAware Approximate
Thu 02:01:00 PM 43.5667 -71.4167 14° North  Level FlightAware Approximate
Thu 02:02:00 PM 43.5730 -71.4178 14° North  Level Estimated
Thu 02:03:00 PM 43.5667 -71.4167 14° North  Level FlightAware Approximate

Login

Don't have an account? Register now (free) for customized features, flight alerts, and more!